Time;durP1;ratioP1;P1;durP2;ratioP2;P2;SDS_P1;SDS_P2;PMS_P1;PMS_P2;Temp;Humidity;BMP_temperature;BMP_pressure;BME280_temperature;BME280_humidity;BME280_pressure;Samples;Min_cycle;Max_cycle;Signal;HPM_P1;HPM_P2
2022/09/16 00:00:58;;;;;;;3.97;0.90;;;15.70;99.90;;;;;;2090800;28;20028;-70
2022/09/16 00:01:58;;;;;;;4.03;1.33;;;15.70;99.90;;;;;;2091681;28;20068;-70
2022/09/16 00:02:59;;;;;;;5.35;1.33;;;15.70;99.90;;;;;;2092952;28;20387;-70
2022/09/16 00:04:00;;;;;;;5.15;1.60;;;15.70;99.90;;;;;;2093016;28;20059;-70
2022/09/16 00:05:00;;;;;;;3.92;0.93;;;15.70;99.90;;;;;;2093379;28;20454;-70
2022/09/16 00:06:01;;;;;;;4.68;1.10;;;15.70;99.90;;;;;;2093522;28;20031;-70
2022/09/16 00:07:03;;;;;;;5.03;1.20;;;15.70;99.90;;;;;;2093617;28;20119;-70
2022/09/16 00:08:03;;;;;;;2.53;0.93;;;15.70;99.90;;;;;;2091931;28;20032;-70
2022/09/16 00:09:04;;;;;;;3.35;1.30;;;15.70;99.90;;;;;;2092080;28;20020;-70
2022/09/16 00:10:05;;;;;;;3.28;1.20;;;15.70;99.90;;;;;;2100188;28;20029;-70
2022/09/16 00:11:06;;;;;;;6.35;1.20;;;15.60;99.90;;;;;;2099524;28;20028;-70
2022/09/16 00:12:07;;;;;;;2.42;0.90;;;15.70;99.90;;;;;;2092211;28;20029;-70
2022/09/16 00:13:07;;;;;;;3.88;1.20;;;15.70;99.90;;;;;;2091959;28;20495;-70
2022/09/16 00:14:09;;;;;;;2.22;1.10;;;15.70;99.90;;;;;;2093318;28;20020;-70
2022/09/16 00:15:10;;;;;;;3.75;1.17;;;15.70;99.90;;;;;;2093309;28;20031;-70
2022/09/16 00:16:16;;;;;;;4.07;1.40;;;15.70;99.90;;;;;;2092374;28;20029;-70
2022/09/16 00:17:16;;;;;;;3.45;0.90;;;15.70;99.90;;;;;;2093068;28;20080;-70
2022/09/16 00:18:19;;;;;;;3.63;0.95;;;15.70;99.90;;;;;;2093338;28;20637;-70
2022/09/16 00:19:21;;;;;;;4.38;1.08;;;15.70;99.90;;;;;;2093506;28;20023;-70
2022/09/16 00:20:22;;;;;;;6.65;1.52;;;15.70;99.90;;;;;;2093024;28;20074;-70
2022/09/16 00:21:23;;;;;;;5.15;1.65;;;15.70;99.90;;;;;;2090580;28;20042;-70
2022/09/16 00:22:24;;;;;;;6.05;1.38;;;15.70;99.90;;;;;;2093895;28;20434;-70
2022/09/16 00:23:24;;;;;;;3.70;1.40;;;15.70;99.90;;;;;;2092994;28;20036;-70
2022/09/16 00:24:25;;;;;;;6.40;1.15;;;15.70;99.90;;;;;;2093199;28;20473;-70
2022/09/16 00:25:25;;;;;;;2.35;1.20;;;15.70;99.90;;;;;;2089822;28;20111;-70
2022/09/16 00:26:26;;;;;;;5.00;1.38;;;15.70;99.90;;;;;;2090340;28;20099;-70
2022/09/16 00:27:27;;;;;;;2.92;1.30;;;15.70;99.90;;;;;;2093570;28;20087;-70
2022/09/16 00:28:27;;;;;;;3.03;1.33;;;15.70;99.90;;;;;;2092651;28;20024;-70
2022/09/16 00:29:28;;;;;;;3.80;1.35;;;15.70;99.90;;;;;;2092572;28;20119;-70
2022/09/16 00:30:28;;;;;;;4.32;1.10;;;15.70;99.90;;;;;;2092403;28;20499;-70
2022/09/16 00:31:29;;;;;;;4.05;1.38;;;15.70;99.90;;;;;;2092182;28;20035;-70
2022/09/16 00:32:30;;;;;;;3.95;1.00;;;15.70;99.90;;;;;;2093498;28;20032;-70
2022/09/16 00:33:31;;;;;;;5.32;1.60;;;15.70;99.90;;;;;;2091904;28;20451;-70
2022/09/16 00:34:31;;;;;;;4.78;1.58;;;15.70;99.90;;;;;;2092390;28;20052;-70
2022/09/16 00:35:32;;;;;;;3.85;1.35;;;15.70;99.90;;;;;;2092427;28;20032;-70
2022/09/16 00:36:32;;;;;;;5.10;1.30;;;15.70;99.90;;;;;;2093833;28;20031;-70
2022/09/16 00:37:33;;;;;;;3.85;1.10;;;15.70;99.90;;;;;;2092561;28;20078;-70
2022/09/16 00:38:34;;;;;;;5.72;1.40;;;15.70;99.90;;;;;;2092548;28;20036;-70
2022/09/16 00:39:35;;;;;;;5.32;1.67;;;15.70;99.90;;;;;;2091851;28;20020;-70
2022/09/16 00:40:44;;;;;;;3.88;1.65;;;15.60;99.90;;;;;;2092171;28;20580;-70
2022/09/16 00:41:44;;;;;;;3.22;1.45;;;15.60;99.90;;;;;;2092220;28;20017;-70
2022/09/16 00:42:45;;;;;;;3.50;1.13;;;15.60;99.90;;;;;;2093473;28;20078;-70
2022/09/16 00:44:00;;;;;;;4.75;1.23;;;15.60;99.90;;;;;;2095142;28;20031;-70
2022/09/16 00:45:04;;;;;;;5.53;1.40;;;15.60;99.90;;;;;;2096068;28;20108;-70
2022/09/16 00:46:05;;;;;;;5.45;1.13;;;15.60;99.90;;;;;;2093373;28;20545;-70
2022/09/16 00:47:05;;;;;;;3.70;1.50;;;15.60;99.90;;;;;;2093059;28;20732;-70
2022/09/16 00:48:11;;;;;;;2.70;1.20;;;15.60;99.90;;;;;;2091465;28;20828;-70
2022/09/16 00:49:24;;;;;;;4.05;1.30;;;15.60;99.90;;;;;;2091524;28;20723;-70
2022/09/16 00:50:37;;;;;;;4.00;0.93;;;15.60;99.90;;;;;;2092413;28;20033;-70
2022/09/16 00:51:39;;;;;;;4.00;1.85;;;15.60;99.90;;;;;;2092128;28;20027;-70
2022/09/16 00:52:41;;;;;;;3.10;1.30;;;15.60;99.90;;;;;;2090994;28;20036;-70
2022/09/16 00:53:48;;;;;;;4.53;1.65;;;15.60;99.90;;;;;;2093342;28;20021;-70
2022/09/16 00:54:48;;;;;;;6.47;1.23;;;15.60;99.90;;;;;;2090530;28;20020;-70
2022/09/16 00:55:52;;;;;;;2.38;1.30;;;15.60;99.90;;;;;;2091968;28;20056;-70
2022/09/16 00:56:55;;;;;;;5.30;1.30;;;15.60;99.90;;;;;;2091517;28;20078;-70
2022/09/16 00:58:01;;;;;;;5.88;1.40;;;15.60;99.90;;;;;;2092090;28;20025;-70
2022/09/16 00:59:17;;;;;;;6.50;1.33;;;15.60;99.90;;;;;;2100055;28;20032;-70
2022/09/16 01:00:17;;;;;;;4.47;1.42;;;15.60;99.90;;;;;;2098921;28;20073;-70
2022/09/16 01:01:18;;;;;;;3.95;1.38;;;15.60;99.90;;;;;;2090669;28;20028;-70
2022/09/16 01:02:20;;;;;;;5.50;1.33;;;15.60;99.90;;;;;;2093268;28;20040;-70
2022/09/16 01:03:22;;;;;;;4.55;1.50;;;15.60;99.90;;;;;;2099584;28;20024;-70
2022/09/16 01:04:30;;;;;;;5.50;1.60;;;15.60;99.90;;;;;;2099370;28;20069;-70
2022/09/16 01:05:32;;;;;;;4.22;1.70;;;15.60;99.90;;;;;;2091712;28;20048;-70
2022/09/16 01:06:37;;;;;;;4.45;1.55;;;15.60;99.90;;;;;;2091240;28;20025;-70
2022/09/16 01:07:42;;;;;;;3.60;1.20;;;15.60;99.90;;;;;;2091920;28;20024;-70
2022/09/16 01:08:44;;;;;;;4.65;1.10;;;15.60;99.90;;;;;;2091687;28;20029;-70
2022/09/16 01:09:45;;;;;;;2.45;1.20;;;15.60;99.90;;;;;;2091539;28;20422;-70
2022/09/16 01:10:46;;;;;;;3.85;0.93;;;15.60;99.90;;;;;;2090377;28;20087;-70
2022/09/16 01:11:46;;;;;;;4.32;1.30;;;15.60;99.90;;;;;;2092355;28;20029;-70
2022/09/16 01:13:03;;;;;;;5.65;1.73;;;15.60;99.90;;;;;;2092685;28;20052;-70
2022/09/16 01:15:30;;;;;;;3.10;1.55;;;15.60;99.90;;;;;;2093809;28;20020;-70
2022/09/16 01:16:38;;;;;;;1.92;1.02;;;15.60;99.90;;;;;;2091471;28;20017;-70
2022/09/16 01:17:56;;;;;;;3.60;1.20;;;15.60;99.90;;;;;;2091432;28;20021;-70
2022/09/16 01:19:40;;;;;;;5.50;1.60;;;15.60;99.90;;;;;;2089878;28;20021;-70
2022/09/16 01:20:56;;;;;;;3.00;1.48;;;15.50;99.90;;;;;;2090643;28;20016;-71
2022/09/16 01:22:34;;;;;;;2.50;1.20;;;15.50;99.90;;;;;;2090980;28;20506;-71
2022/09/16 01:24:02;;;;;;;4.70;1.60;;;15.50;99.90;;;;;;2092281;28;20082;-70
2022/09/16 01:25:06;;;;;;;5.18;1.55;;;15.50;99.90;;;;;;2090495;28;20439;-70
2022/09/16 01:26:34;;;;;;;5.15;1.63;;;15.50;99.90;;;;;;2091053;28;20033;-70
2022/09/16 01:27:34;;;;;;;8.02;1.90;;;15.50;99.90;;;;;;2090967;28;20020;-71
2022/09/16 01:29:04;;;;;;;5.70;1.63;;;15.50;99.90;;;;;;2092188;28;20028;-71
2022/09/16 01:30:20;;;;;;;7.00;1.67;;;15.50;99.90;;;;;;2089496;28;20036;-71
2022/09/16 01:31:51;;;;;;;4.28;1.75;;;15.40;99.90;;;;;;2092135;28;20115;-70
2022/09/16 01:33:05;;;;;;;5.82;1.88;;;15.50;99.90;;;;;;2091157;28;20023;-70
2022/09/16 01:34:26;;;;;;;7.65;2.25;;;15.50;99.90;;;;;;2093836;28;20105;-70
2022/09/16 01:36:01;;;;;;;5.68;1.80;;;15.40;99.90;;;;;;2091926;28;20027;-70
2022/09/16 01:37:14;;;;;;;7.00;2.05;;;15.40;99.90;;;;;;2092352;28;20472;-70
2022/09/16 01:38:29;;;;;;;5.18;1.90;;;15.40;99.90;;;;;;2093560;28;20396;-70
2022/09/16 01:39:54;;;;;;;7.78;1.90;;;15.40;99.90;;;;;;2093855;28;20020;-70
2022/09/16 01:40:59;;;;;;;6.45;2.10;;;15.40;99.90;;;;;;2093008;28;20063;-70
2022/09/16 01:42:23;;;;;;;5.25;2.00;;;15.40;99.90;;;;;;2094541;28;20530;-70
2022/09/16 01:43:36;;;;;;;5.72;2.10;;;15.40;99.90;;;;;;2094448;28;20032;-70
2022/09/16 01:44:44;;;;;;;3.88;2.05;;;15.40;99.90;;;;;;2092027;28;20112;-70
2022/09/16 01:45:58;;;;;;;5.75;1.98;;;15.40;99.90;;;;;;2094508;28;20392;-70
2022/09/16 01:47:09;;;;;;;4.63;2.00;;;15.50;99.90;;;;;;2093375;28;20017;-70
2022/09/16 01:48:37;;;;;;;7.50;2.45;;;15.50;99.90;;;;;;2093563;28;20024;-70
2022/09/16 01:49:59;;;;;;;5.68;2.05;;;15.50;99.90;;;;;;2093108;28;20020;-70
2022/09/16 01:51:04;;;;;;;6.25;1.92;;;15.40;99.90;;;;;;2093518;28;20082;-70
2022/09/16 01:52:18;;;;;;;6.70;2.65;;;15.50;99.90;;;;;;2095260;28;20763;-70
2022/09/16 01:53:50;;;;;;;6.88;2.63;;;15.50;99.90;;;;;;2093652;28;20028;-70
2022/09/16 01:54:58;;;;;;;8.45;2.13;;;15.50;99.90;;;;;;2091094;28;20036;-70
2022/09/16 01:56:10;;;;;;;7.22;2.40;;;15.50;99.90;;;;;;2093448;28;20469;-70
2022/09/16 01:57:16;;;;;;;5.85;1.90;;;15.50;99.90;;;;;;2093004;28;20121;-70
2022/09/16 01:58:22;;;;;;;3.60;2.10;;;15.50;99.90;;;;;;2094697;28;20035;-70
2022/09/16 01:59:27;;;;;;;4.72;2.13;;;15.60;99.90;;;;;;2093282;28;20024;-70
2022/09/16 02:00:29;;;;;;;5.25;2.53;;;15.60;99.90;;;;;;2094336;28;20634;-70
2022/09/16 02:01:44;;;;;;;8.20;2.55;;;15.60;99.90;;;;;;2092129;28;20033;-70
2022/09/16 02:02:57;;;;;;;5.93;2.38;;;15.60;99.90;;;;;;2093407;28;20035;-70
2022/09/16 02:04:03;;;;;;;7.53;2.22;;;15.60;99.90;;;;;;2093167;28;20113;-70
2022/09/16 02:05:13;;;;;;;3.95;1.80;;;15.60;99.90;;;;;;2093448;28;20063;-70
2022/09/16 02:06:21;;;;;;;5.40;2.08;;;15.60;99.90;;;;;;2092714;28;20038;-70
2022/09/16 02:07:28;;;;;;;4.93;1.80;;;15.60;99.90;;;;;;2094367;28;20039;-70
2022/09/16 02:08:44;;;;;;;4.95;1.88;;;15.60;99.90;;;;;;2092768;28;20127;-70
2022/09/16 02:09:55;;;;;;;6.70;2.63;;;15.60;99.90;;;;;;2092488;28;20020;-70
2022/09/16 02:10:59;;;;;;;6.25;2.83;;;15.60;99.90;;;;;;2092497;28;20051;-70
2022/09/16 02:12:05;;;;;;;4.22;2.17;;;15.60;99.90;;;;;;2093928;28;20029;-70
2022/09/16 02:13:37;;;;;;;5.07;2.25;;;15.60;99.90;;;;;;2093318;28;20032;-70
2022/09/16 02:14:42;;;;;;;5.55;2.35;;;15.60;99.90;;;;;;2095071;28;20025;-70
2022/09/16 02:15:46;;;;;;;6.05;2.10;;;15.60;99.90;;;;;;2101402;28;20047;-70
2022/09/16 02:16:58;;;;;;;4.38;1.88;;;15.60;99.90;;;;;;2101976;28;20020;-70
2022/09/16 02:18:09;;;;;;;5.20;1.95;;;15.60;99.90;;;;;;2092198;28;20154;-71
2022/09/16 02:19:15;;;;;;;4.75;1.73;;;15.60;99.90;;;;;;2093663;28;20055;-70
2022/09/16 02:20:23;;;;;;;4.85;1.90;;;15.60;99.90;;;;;;2092784;28;20066;-70
2022/09/16 02:21:26;;;;;;;4.13;1.80;;;15.50;99.90;;;;;;2091565;28;20040;-70
2022/09/16 02:22:43;;;;;;;5.07;1.95;;;15.50;99.90;;;;;;2092529;28;20905;-70
2022/09/16 02:23:49;;;;;;;3.92;1.70;;;15.60;99.90;;;;;;2093288;28;20107;-70
2022/09/16 02:24:51;;;;;;;7.20;2.10;;;15.60;99.90;;;;;;2091872;28;20049;-70
2022/09/16 02:25:54;;;;;;;5.78;2.35;;;15.60;99.90;;;;;;2094902;28;20736;-70
2022/09/16 02:27:01;;;;;;;6.30;2.03;;;15.60;99.90;;;;;;2094906;28;20044;-69
2022/09/16 02:28:07;;;;;;;7.50;2.58;;;15.60;99.90;;;;;;2092780;28;20090;-70
2022/09/16 02:29:16;;;;;;;7.35;2.10;;;15.60;99.90;;;;;;2091771;28;20446;-70
2022/09/16 02:30:20;;;;;;;3.92;2.00;;;15.60;99.90;;;;;;2093928;28;20067;-70
2022/09/16 02:31:29;;;;;;;9.02;2.53;;;15.50;99.90;;;;;;2092672;28;20038;-70
2022/09/16 02:32:32;;;;;;;5.93;1.88;;;15.50;99.90;;;;;;2093018;28;20435;-70
2022/09/16 02:33:40;;;;;;;6.55;2.05;;;15.60;99.90;;;;;;2092359;28;20056;-70
2022/09/16 02:34:45;;;;;;;5.65;1.80;;;15.60;99.90;;;;;;2091198;28;20052;-70
2022/09/16 02:35:51;;;;;;;7.38;2.13;;;15.60;99.90;;;;;;2094055;28;20020;-70
2022/09/16 02:36:55;;;;;;;5.85;2.20;;;15.60;99.90;;;;;;2092346;28;20025;-70
2022/09/16 02:38:05;;;;;;;4.85;1.70;;;15.60;99.90;;;;;;2090869;28;20488;-69
2022/09/16 02:39:10;;;;;;;3.75;1.98;;;15.60;99.90;;;;;;2093034;28;20074;-70
2022/09/16 02:40:18;;;;;;;8.80;2.03;;;15.50;99.90;;;;;;2093024;28;20096;-70
2022/09/16 02:41:19;;;;;;;6.13;1.92;;;15.60;99.90;;;;;;2092999;28;20124;-70
2022/09/16 02:42:20;;;;;;;6.38;2.10;;;15.60;99.90;;;;;;2092804;28;20024;-70
2022/09/16 02:43:21;;;;;;;5.28;1.77;;;15.50;99.90;;;;;;2091605;28;20155;-70
2022/09/16 02:44:24;;;;;;;6.95;2.33;;;15.50;99.90;;;;;;2093514;28;20021;-70
2022/09/16 02:45:44;;;;;;;7.63;1.88;;;15.60;99.90;;;;;;2093496;28;20017;-70
2022/09/16 02:47:06;;;;;;;7.35;1.80;;;15.50;99.90;;;;;;2092061;28;20017;-70
2022/09/16 02:48:39;;;;;;;5.03;2.10;;;15.50;99.90;;;;;;2092231;28;20028;-70
2022/09/16 02:49:58;;;;;;;7.60;2.45;;;15.50;99.90;;;;;;2093300;28;20443;-70
2022/09/16 02:51:03;;;;;;;7.00;2.03;;;15.50;99.90;;;;;;2090600;28;20021;-70
2022/09/16 02:52:18;;;;;;;5.80;2.13;;;15.40;99.90;;;;;;2092656;28;20032;-70
2022/09/16 02:53:57;;;;;;;5.55;2.20;;;15.40;99.90;;;;;;2093085;28;20400;-70
2022/09/16 02:55:10;;;;;;;7.82;2.25;;;15.40;99.90;;;;;;2091715;28;20032;-70
2022/09/16 02:56:30;;;;;;;4.32;2.05;;;15.40;99.90;;;;;;2091561;28;20024;-70
2022/09/16 02:57:31;;;;;;;6.88;2.67;;;15.40;99.90;;;;;;2093801;28;20569;-70
2022/09/16 02:58:32;;;;;;;5.25;2.13;;;15.50;99.90;;;;;;2093918;28;20051;-70
2022/09/16 02:59:32;;;;;;;4.30;2.20;;;15.50;99.90;;;;;;2092957;28;20025;-70
2022/09/16 03:00:39;;;;;;;6.68;2.00;;;15.50;99.90;;;;;;2093164;28;20017;-70
2022/09/16 03:01:43;;;;;;;6.40;2.55;;;15.50;99.90;;;;;;2092613;28;20019;-70
2022/09/16 03:02:44;;;;;;;8.18;2.70;;;15.50;99.90;;;;;;2092387;28;20060;-70
2022/09/16 03:03:45;;;;;;;4.18;1.90;;;15.40;99.90;;;;;;2093846;28;20483;-70
2022/09/16 03:04:45;;;;;;;4.78;2.03;;;15.50;99.90;;;;;;2092965;28;20036;-70
2022/09/16 03:06:13;;;;;;;5.88;1.92;;;15.50;99.90;;;;;;2091327;28;20108;-70
2022/09/16 03:07:15;;;;;;;6.07;1.90;;;15.50;99.90;;;;;;2092525;28;20040;-70
2022/09/16 03:08:16;;;;;;;6.18;1.77;;;15.50;99.90;;;;;;2092787;28;20486;-70
2022/09/16 03:09:17;;;;;;;6.50;2.15;;;15.50;99.90;;;;;;2092843;28;20620;-70
2022/09/16 03:10:18;;;;;;;6.88;2.17;;;15.50;99.90;;;;;;2094254;28;20476;-70
2022/09/16 03:11:50;;;;;;;7.20;2.38;;;15.50;99.90;;;;;;2092796;28;22700;-70
2022/09/16 03:13:00;;;;;;;5.63;1.77;;;15.50;99.90;;;;;;2089704;28;20032;-70
2022/09/16 03:14:33;;;;;;;6.07;2.70;;;15.40;99.90;;;;;;2092453;28;20112;-70
2022/09/16 03:15:52;;;;;;;10.15;2.13;;;15.40;99.90;;;;;;2092811;28;20263;-70
2022/09/16 03:17:31;;;;;;;7.18;1.85;;;15.40;99.90;;;;;;2092209;28;20033;-70
2022/09/16 03:18:46;;;;;;;2.40;1.80;;;15.40;99.90;;;;;;2076170;28;20113;-70
2022/09/16 03:20:06;;;;;;;6.40;1.92;;;15.40;99.90;;;;;;2092344;28;20031;-70
2022/09/16 03:21:20;;;;;;;4.32;1.95;;;15.40;99.90;;;;;;2092405;28;20017;-70
2022/09/16 03:22:56;;;;;;;4.22;2.03;;;15.30;99.90;;;;;;2093555;28;20029;-70
2022/09/16 03:24:31;;;;;;;5.95;2.08;;;15.30;99.90;;;;;;2085147;28;20032;-70
2022/09/16 03:25:57;;;;;;;5.07;2.03;;;15.30;99.90;;;;;;2060073;28;20041;-70
2022/09/16 03:27:09;;;;;;;5.30;1.95;;;15.30;99.90;;;;;;2087585;28;20033;-70
2022/09/16 03:28:15;;;;;;;7.40;2.13;;;15.30;99.90;;;;;;2091812;28;20071;-70
2022/09/16 03:29:19;;;;;;;5.75;2.15;;;15.30;99.90;;;;;;2091666;28;20392;-70
2022/09/16 03:30:20;;;;;;;4.63;2.10;;;15.40;99.90;;;;;;2091411;28;20055;-70
2022/09/16 03:31:34;;;;;;;7.00;2.35;;;15.40;99.90;;;;;;2092974;28;20051;-70
2022/09/16 03:32:55;;;;;;;3.63;1.80;;;15.40;99.90;;;;;;2091752;28;20028;-70
2022/09/16 03:34:02;;;;;;;7.13;2.00;;;15.40;99.90;;;;;;2091906;28;20024;-70
2022/09/16 03:35:08;;;;;;;5.22;1.95;;;15.40;99.90;;;;;;2091556;28;20111;-70
2022/09/16 03:36:13;;;;;;;8.32;2.33;;;15.40;99.90;;;;;;2091622;28;20017;-70
2022/09/16 03:37:16;;;;;;;4.47;1.85;;;15.40;99.90;;;;;;2092793;28;20047;-70
2022/09/16 03:38:19;;;;;;;5.07;1.88;;;15.40;99.90;;;;;;2093275;28;20024;-70
2022/09/16 03:39:21;;;;;;;5.90;2.00;;;15.40;99.90;;;;;;2091553;28;20028;-70
2022/09/16 03:40:22;;;;;;;4.50;2.00;;;15.40;99.90;;;;;;2093279;28;20032;-70
2022/09/16 03:41:25;;;;;;;3.10;1.80;;;15.40;99.90;;;;;;2092871;28;20551;-70
2022/09/16 03:42:26;;;;;;;6.65;2.30;;;15.40;99.90;;;;;;2091997;28;20028;-70
2022/09/16 03:43:26;;;;;;;9.73;2.65;;;15.40;99.90;;;;;;2090663;28;20048;-70
2022/09/16 03:44:36;;;;;;;5.15;2.05;;;15.40;99.90;;;;;;2090058;28;20373;-70
2022/09/16 03:45:39;;;;;;;6.40;2.08;;;15.40;99.90;;;;;;2093283;28;20020;-70
2022/09/16 03:46:40;;;;;;;4.97;2.10;;;15.40;99.90;;;;;;2094087;28;20028;-70
2022/09/16 03:47:41;;;;;;;5.63;2.00;;;15.40;99.90;;;;;;2093086;28;20039;-69
2022/09/16 03:48:42;;;;;;;3.72;1.92;;;15.40;99.90;;;;;;2092110;28;20067;-70
2022/09/16 03:49:42;;;;;;;4.13;1.77;;;15.40;99.90;;;;;;2093534;28;20021;-70
2022/09/16 03:50:43;;;;;;;8.27;1.98;;;15.40;99.90;;;;;;2091865;28;20017;-70
2022/09/16 03:51:43;;;;;;;3.92;1.85;;;15.40;99.90;;;;;;2092660;28;20056;-70
2022/09/16 03:52:44;;;;;;;3.38;1.98;;;15.40;99.90;;;;;;2092053;28;20101;-69
2022/09/16 03:53:44;;;;;;;5.63;2.10;;;15.40;99.90;;;;;;2091464;28;20024;-69
2022/09/16 03:54:45;;;;;;;6.70;2.22;;;15.40;99.90;;;;;;2093514;28;20111;-70
2022/09/16 03:55:48;;;;;;;4.32;1.98;;;15.40;99.90;;;;;;2091010;28;20499;-70
2022/09/16 03:56:49;;;;;;;7.32;2.25;;;15.40;99.90;;;;;;2091404;28;20048;-70
2022/09/16 03:57:52;;;;;;;5.32;1.88;;;15.40;99.90;;;;;;2090831;28;20070;-70
2022/09/16 03:58:53;;;;;;;3.75;1.85;;;15.40;99.90;;;;;;2092439;28;20033;-70
2022/09/16 03:59:53;;;;;;;6.18;1.90;;;15.40;99.90;;;;;;2091495;28;20029;-70
2022/09/16 04:00:54;;;;;;;3.83;1.85;;;15.40;99.90;;;;;;2091815;28;20024;-70
2022/09/16 04:01:55;;;;;;;5.65;2.10;;;15.40;99.90;;;;;;2091640;28;21300;-70
2022/09/16 04:02:55;;;;;;;8.80;2.20;;;15.40;99.90;;;;;;2092124;28;20488;-70
2022/09/16 04:03:56;;;;;;;6.72;1.73;;;15.40;99.90;;;;;;2092264;28;20505;-70
2022/09/16 04:04:57;;;;;;;3.78;2.17;;;15.40;99.90;;;;;;2092200;28;20028;-70
2022/09/16 04:05:57;;;;;;;7.22;2.00;;;15.40;99.90;;;;;;2091194;28;20455;-70
2022/09/16 04:06:58;;;;;;;5.63;2.00;;;15.40;99.90;;;;;;2092099;28;20396;-70
2022/09/16 04:07:58;;;;;;;4.38;2.03;;;15.30;99.90;;;;;;2092462;28;20504;-70
2022/09/16 04:09:02;;;;;;;5.90;1.95;;;15.30;99.90;;;;;;2089543;28;20029;-70
2022/09/16 04:10:04;;;;;;;8.60;2.67;;;15.30;99.90;;;;;;2093100;28;20036;-70
2022/09/16 04:11:06;;;;;;;7.28;2.03;;;15.30;99.90;;;;;;2093509;28;20094;-70
2022/09/16 04:12:07;;;;;;;4.75;1.92;;;15.30;99.90;;;;;;2092934;28;20043;-70
2022/09/16 04:13:08;;;;;;;6.13;2.17;;;15.30;99.90;;;;;;2092823;28;20056;-70
2022/09/16 04:14:09;;;;;;;6.65;2.15;;;15.30;99.90;;;;;;2099523;28;20094;-70
2022/09/16 04:15:11;;;;;;;4.03;1.95;;;15.30;99.90;;;;;;2100659;28;20025;-70
2022/09/16 04:16:19;;;;;;;7.25;2.40;;;15.30;99.90;;;;;;2093487;28;20400;-70
2022/09/16 04:17:20;;;;;;;6.00;2.08;;;15.30;99.90;;;;;;2090741;28;20569;-70
2022/09/16 04:18:20;;;;;;;4.85;1.33;;;15.30;99.90;;;;;;2092952;28;20814;-70
2022/09/16 04:19:21;;;;;;;4.20;1.98;;;15.30;99.90;;;;;;2093698;28;20024;-70
2022/09/16 04:20:22;;;;;;;4.07;1.80;;;15.30;99.90;;;;;;2092162;28;20640;-70
2022/09/16 04:21:24;;;;;;;4.60;1.75;;;15.30;99.90;;;;;;2092680;28;20100;-70
2022/09/16 04:22:28;;;;;;;6.20;2.08;;;15.30;99.90;;;;;;2093388;28;20033;-70
2022/09/16 04:23:30;;;;;;;7.70;2.50;;;15.30;99.90;;;;;;2093096;28;20111;-70
2022/09/16 04:24:31;;;;;;;5.03;1.90;;;15.30;99.90;;;;;;2091964;28;20182;-70
2022/09/16 04:25:32;;;;;;;3.28;1.90;;;15.30;99.90;;;;;;2090440;28;20036;-70
2022/09/16 04:26:33;;;;;;;5.30;1.88;;;15.30;99.90;;;;;;2093031;28;20032;-70
2022/09/16 04:27:34;;;;;;;7.10;1.75;;;15.30;99.90;;;;;;2092253;28;20028;-70
2022/09/16 04:28:34;;;;;;;6.68;2.35;;;15.30;99.90;;;;;;2090920;28;20032;-70
2022/09/16 04:29:35;;;;;;;5.30;2.03;;;15.30;99.90;;;;;;2091802;28;20170;-70
2022/09/16 04:30:37;;;;;;;3.92;2.17;;;15.30;99.90;;;;;;2092597;28;20021;-69
2022/09/16 04:31:37;;;;;;;5.40;2.20;;;15.30;99.90;;;;;;2092522;28;20017;-70
2022/09/16 04:32:38;;;;;;;5.57;2.13;;;15.30;99.90;;;;;;2091421;28;20029;-70
2022/09/16 04:33:40;;;;;;;7.00;1.80;;;15.30;99.90;;;;;;2091284;28;20024;-70
2022/09/16 04:34:42;;;;;;;6.57;2.35;;;15.30;99.90;;;;;;2092657;28;20013;-70
2022/09/16 04:35:42;;;;;;;4.72;2.17;;;15.30;99.90;;;;;;2092153;28;20027;-70
2022/09/16 04:36:43;;;;;;;4.75;1.75;;;15.30;99.90;;;;;;2091855;28;20025;-70
2022/09/16 04:37:43;;;;;;;4.85;1.85;;;15.30;99.90;;;;;;2093413;28;20047;-70
2022/09/16 04:38:46;;;;;;;5.07;1.95;;;15.20;99.90;;;;;;2093255;28;20017;-70
2022/09/16 04:39:46;;;;;;;3.72;1.95;;;15.20;99.90;;;;;;2094343;28;20062;-70
2022/09/16 04:40:47;;;;;;;4.72;2.20;;;15.20;99.90;;;;;;2091684;28;20021;-70
2022/09/16 04:41:48;;;;;;;6.72;2.63;;;15.20;99.90;;;;;;2093754;28;20358;-70
2022/09/16 04:42:49;;;;;;;3.88;2.05;;;15.20;99.90;;;;;;2092096;28;20025;-70
2022/09/16 04:43:51;;;;;;;5.40;2.28;;;15.20;99.90;;;;;;2090619;28;20052;-70
2022/09/16 04:44:52;;;;;;;6.32;2.10;;;15.20;99.90;;;;;;2091604;28;20679;-71
2022/09/16 04:45:53;;;;;;;8.52;2.58;;;15.20;99.90;;;;;;2092323;28;20093;-70
2022/09/16 04:46:53;;;;;;;9.10;2.58;;;15.20;99.90;;;;;;2092336;28;20042;-71
2022/09/16 04:47:58;;;;;;;8.68;2.97;;;15.20;99.90;;;;;;2092387;28;20033;-70
2022/09/16 04:48:59;;;;;;;8.68;2.63;;;15.20;99.90;;;;;;2092685;28;20028;-70
2022/09/16 04:50:00;;;;;;;6.10;2.40;;;15.20;99.90;;;;;;2092690;28;20036;-70
2022/09/16 04:51:09;;;;;;;10.93;2.60;;;15.20;99.90;;;;;;2091535;28;20112;-70
2022/09/16 04:52:10;;;;;;;7.32;2.47;;;15.20;99.90;;;;;;2091855;28;20039;-70
2022/09/16 04:53:10;;;;;;;5.80;2.30;;;15.10;99.90;;;;;;2092662;28;20047;-70
2022/09/16 04:54:11;;;;;;;6.43;2.25;;;15.20;99.90;;;;;;2092190;28;20023;-70
2022/09/16 04:55:11;;;;;;;4.53;2.00;;;15.20;99.90;;;;;;2092283;28;20025;-70
2022/09/16 04:56:15;;;;;;;6.95;2.50;;;15.20;99.90;;;;;;2093269;28;20097;-70
2022/09/16 04:57:15;;;;;;;5.20;2.28;;;15.20;99.90;;;;;;2091365;28;20016;-70
2022/09/16 04:58:16;;;;;;;7.22;2.78;;;15.20;99.90;;;;;;2093059;28;20055;-70
2022/09/16 04:59:16;;;;;;;8.20;2.67;;;15.20;99.90;;;;;;2091292;28;20025;-71
2022/09/16 05:00:17;;;;;;;7.85;2.72;;;15.10;99.90;;;;;;2091250;28;20055;-70
2022/09/16 05:01:20;;;;;;;5.18;2.33;;;15.20;99.90;;;;;;2091471;28;20021;-70
2022/09/16 05:02:21;;;;;;;9.40;2.42;;;15.20;99.90;;;;;;2091756;28;20044;-70
2022/09/16 05:03:21;;;;;;;6.20;2.33;;;15.10;99.90;;;;;;2091075;28;20032;-70
2022/09/16 05:04:22;;;;;;;8.07;2.60;;;15.10;99.90;;;;;;2090537;28;20064;-70
2022/09/16 05:05:22;;;;;;;7.07;2.70;;;15.10;99.90;;;;;;2089778;28;20032;-70
2022/09/16 05:06:28;;;;;;;6.00;2.22;;;15.10;99.90;;;;;;2091591;28;20077;-70
2022/09/16 05:07:28;;;;;;;3.50;2.38;;;15.10;99.90;;;;;;2090658;28;20025;-70
2022/09/16 05:08:29;;;;;;;7.13;2.30;;;15.10;99.90;;;;;;2090860;28;20107;-71
2022/09/16 05:09:29;;;;;;;4.85;2.45;;;15.10;99.90;;;;;;2091523;28;20052;-70
2022/09/16 05:10:30;;;;;;;8.63;2.53;;;15.10;99.90;;;;;;2091505;28;20097;-70
2022/09/16 05:11:36;;;;;;;3.58;1.80;;;15.00;99.90;;;;;;2094088;28;20025;-70
2022/09/16 05:12:37;;;;;;;9.63;2.72;;;15.00;99.90;;;;;;2093039;28;20130;-71
2022/09/16 05:13:38;;;;;;;5.57;2.60;;;15.00;99.90;;;;;;2092699;28;20027;-71
2022/09/16 05:14:38;;;;;;;7.00;2.67;;;15.00;99.90;;;;;;2094228;28;20031;-71
2022/09/16 05:15:39;;;;;;;8.15;2.67;;;15.00;99.90;;;;;;2093932;28;20415;-70
2022/09/16 05:16:40;;;;;;;6.38;2.67;;;15.00;99.90;;;;;;2094024;28;20036;-70
2022/09/16 05:17:40;;;;;;;7.10;2.50;;;15.00;99.90;;;;;;2092931;28;20017;-70
2022/09/16 05:18:43;;;;;;;9.02;2.00;;;15.00;99.90;;;;;;2093295;28;20083;-70
2022/09/16 05:19:43;;;;;;;7.60;2.95;;;15.00;99.90;;;;;;2094910;28;20035;-71
2022/09/16 05:20:44;;;;;;;12.82;3.55;;;15.00;99.90;;;;;;2092770;28;20749;-70
2022/09/16 05:21:45;;;;;;;9.05;2.47;;;15.00;99.90;;;;;;2095117;28;20063;-71
2022/09/16 05:22:49;;;;;;;11.05;2.85;;;15.00;99.90;;;;;;2094525;28;20032;-71
2022/09/16 05:23:51;;;;;;;6.38;2.58;;;15.00;99.90;;;;;;2091756;28;20057;-71
2022/09/16 05:24:51;;;;;;;7.38;2.80;;;15.00;99.90;;;;;;2093610;28;20051;-71
2022/09/16 05:25:52;;;;;;;6.90;2.75;;;15.00;99.90;;;;;;2093502;28;20038;-71
2022/09/16 05:26:53;;;;;;;7.10;2.40;;;15.00;99.90;;;;;;2092492;28;20033;-71
2022/09/16 05:27:54;;;;;;;4.97;2.50;;;15.00;99.90;;;;;;2091890;28;20073;-71
2022/09/16 05:28:54;;;;;;;6.97;2.30;;;15.10;99.90;;;;;;2094302;28;20106;-71
2022/09/16 05:29:55;;;;;;;4.88;2.30;;;15.00;99.90;;;;;;2092503;28;20051;-72
2022/09/16 05:31:17;;;;;;;7.35;2.67;;;15.00;99.90;;;;;;2094182;28;20515;-71
2022/09/16 05:32:17;;;;;;;7.60;2.45;;;15.00;99.90;;;;;;2095176;28;20110;-70
2022/09/16 05:33:18;;;;;;;9.40;2.30;;;15.00;99.90;;;;;;2094130;28;20821;-72
2022/09/16 05:34:21;;;;;;;7.20;2.53;;;15.00;99.90;;;;;;2093747;28;20021;-72
2022/09/16 05:35:22;;;;;;;5.88;2.30;;;15.00;99.90;;;;;;2094720;28;20774;-72
2022/09/16 05:36:24;;;;;;;5.35;2.38;;;15.00;99.90;;;;;;2094083;28;20384;-72
2022/09/16 05:37:24;;;;;;;10.27;3.03;;;15.10;99.90;;;;;;2094110;28;20527;-72
2022/09/16 05:38:25;;;;;;;4.35;2.03;;;15.10;99.90;;;;;;2092302;28;20388;-72
2022/09/16 05:39:25;;;;;;;5.88;2.65;;;15.10;99.90;;;;;;2091924;28;20035;-72
2022/09/16 05:40:26;;;;;;;6.43;2.10;;;15.10;99.90;;;;;;2094345;28;20029;-71
2022/09/16 05:41:26;;;;;;;7.05;2.47;;;15.10;99.90;;;;;;2095579;28;20051;-72
2022/09/16 05:42:27;;;;;;;4.45;2.10;;;15.10;99.90;;;;;;2094844;28;20104;-72
2022/09/16 05:43:28;;;;;;;7.32;2.38;;;15.10;99.90;;;;;;2093260;28;20046;-72
2022/09/16 05:44:29;;;;;;;7.63;2.33;;;15.10;99.90;;;;;;2092850;28;20039;-71